Time;durP1;ratioP1;P1;durP2;ratioP2;P2;SDS_P1;SDS_P2;PMS_P1;PMS_P2;Temp;Humidity;BMP_temperature;BMP_pressure;BME280_temperature;BME280_humidity;BME280_pressure;Samples;Min_cycle;Max_cycle;Signal;HPM_P1;HPM_P2
2023/11/08 00:00:03;;;;;;;1.80;1.48;;;;;;;6.78;74.74;99461.28;5004212;28;20053;-44
2023/11/08 00:02:30;;;;;;;2.03;0.93;;;;;;;6.77;73.40;99463.03;5000522;28;20503;-46
2023/11/08 00:04:56;;;;;;;3.30;2.17;;;;;;;6.77;74.42;99457.00;5002718;28;20736;-45
2023/11/08 00:07:23;;;;;;;3.88;0.75;;;;;;;6.75;73.38;99463.88;5006306;28;20056;-42
2023/11/08 00:09:50;;;;;;;4.03;0.85;;;;;;;6.76;73.66;99465.59;5006731;28;20060;-47
2023/11/08 00:12:17;;;;;;;1.95;0.80;;;;;;;6.75;73.41;99456.16;4996865;28;20045;-48
2023/11/08 00:14:44;;;;;;;2.47;1.20;;;;;;;6.76;73.66;99455.28;5002139;28;20057;-45
2023/11/08 00:17:13;;;;;;;2.13;0.85;;;;;;;6.75;74.96;99458.72;5005862;28;20081;-45
2023/11/08 00:19:41;;;;;;;2.97;0.93;;;;;;;6.74;74.68;99445.00;5003730;28;20046;-44
2023/11/08 00:22:07;;;;;;;2.70;0.90;;;;;;;6.73;74.18;99451.00;5003418;28;20124;-46
2023/11/08 00:24:34;;;;;;;5.18;1.20;;;;;;;6.71;73.49;99451.81;5003384;28;20058;-46
2023/11/08 00:27:01;;;;;;;4.03;1.23;;;;;;;6.69;74.06;99449.28;5003200;28;20046;-45
2023/11/08 00:29:28;;;;;;;5.18;0.77;;;;;;;6.68;74.07;99453.53;5003842;28;20057;-47
2023/11/08 00:31:54;;;;;;;4.88;1.27;;;;;;;6.68;73.83;99452.66;5005121;28;20042;-46
2023/11/08 00:34:21;;;;;;;5.25;1.20;;;;;;;6.68;74.40;99447.53;5002469;28;20046;-43
2023/11/08 00:36:48;;;;;;;2.17;0.85;;;;;;;6.70;73.81;99443.25;4999848;28;20054;-46
2023/11/08 00:39:17;;;;;;;2.53;0.98;;;;;;;6.71;73.92;99437.25;4997101;28;20053;-40
2023/11/08 00:41:45;;;;;;;3.08;1.48;;;;;;;6.72;74.69;99438.97;5000554;28;20491;-48
2023/11/08 00:44:13;;;;;;;6.18;1.30;;;;;;;6.74;74.53;99436.38;5005607;28;20502;-45
2023/11/08 00:46:40;;;;;;;5.53;1.30;;;;;;;6.73;74.49;99432.09;5004057;28;20050;-47
2023/11/08 00:49:07;;;;;;;3.97;1.42;;;;;;;6.74;74.14;99428.66;5002336;28;20041;-45
2023/11/08 00:51:35;;;;;;;5.82;1.23;;;;;;;6.75;74.10;99428.69;5003759;28;20058;-45
2023/11/08 00:54:02;;;;;;;5.25;1.00;;;;;;;6.74;74.82;99432.13;5002727;28;20100;-42
2023/11/08 00:56:30;;;;;;;3.33;1.13;;;;;;;6.76;74.38;99429.56;5002100;28;20173;-41
2023/11/08 00:58:57;;;;;;;9.88;2.67;;;;;;;6.76;74.46;99424.41;5005584;28;20052;-41
2023/11/08 01:01:25;;;;;;;3.47;1.42;;;;;;;6.79;75.69;99427.00;5002984;28;20056;-45
2023/11/08 01:03:54;;;;;;;2.78;1.48;;;;;;;6.79;75.77;99416.69;5009168;28;20060;-47
2023/11/08 01:06:23;;;;;;;4.72;1.25;;;;;;;6.80;74.82;99416.66;5002838;28;20056;-46
2023/11/08 01:08:50;;;;;;;8.20;1.02;;;;;;;6.82;74.39;99419.25;5004446;28;20046;-43
2023/11/08 01:11:17;;;;;;;4.72;1.73;;;;;;;6.83;74.99;99418.41;5001192;28;20050;-41
2023/11/08 01:13:45;;;;;;;3.20;1.48;;;;;;;6.83;75.87;99415.84;5006859;28;20084;-46
2023/11/08 01:16:13;;;;;;;3.55;1.08;;;;;;;6.85;75.31;99408.97;5011655;28;20042;-42
2023/11/08 01:18:41;;;;;;;5.50;2.38;;;;;;;6.84;75.83;99407.25;5007935;28;20599;-47
2023/11/08 01:21:08;;;;;;;2.88;2.00;;;;;;;6.84;75.68;99407.25;5015873;28;20073;-45
2023/11/08 01:23:36;;;;;;;3.25;2.03;;;;;;;6.85;74.41;99411.53;5000788;28;20118;-42
2023/11/08 01:26:03;;;;;;;8.35;2.75;;;;;;;6.82;75.20;99408.94;5009346;28;20050;-46
2023/11/08 01:28:30;;;;;;;5.25;2.13;;;;;;;6.82;74.53;99411.53;5008430;28;20050;-42
2023/11/08 01:30:57;;;;;;;4.70;2.63;;;;;;;6.79;74.38;99407.25;5011917;28;20124;-42
2023/11/08 01:33:24;;;;;;;2.78;1.80;;;;;;;6.78;75.62;99413.25;5015301;28;20049;-45
2023/11/08 01:35:50;;;;;;;6.35;2.42;;;;;;;6.77;76.10;99410.66;5011103;28;20053;-45
2023/11/08 01:38:17;;;;;;;3.70;1.83;;;;;;;6.74;74.49;99405.50;4994838;28;20054;-42
2023/11/08 01:40:44;;;;;;;3.78;1.95;;;;;;;6.69;74.44;99398.63;5007833;28;20068;-46
2023/11/08 01:43:32;;;;;;;4.63;1.30;;;;;;;6.65;75.43;99399.47;5003021;28;20053;-43
2023/11/08 01:46:11;;;;;;;4.43;1.25;;;;;;;6.65;76.06;99396.91;5012811;28;20054;-42
2023/11/08 01:48:40;;;;;;;4.78;0.82;;;;;;;6.65;75.38;99396.91;5009455;28;20049;-49
2023/11/08 01:51:08;;;;;;;6.18;0.60;;;;;;;6.63;75.58;99388.34;5011869;28;20049;-43
2023/11/08 01:53:40;;;;;;;2.17;0.95;;;;;;;6.63;75.74;99378.06;5003959;28;20054;-43
2023/11/08 01:56:08;;;;;;;1.90;0.60;;;;;;;6.63;75.54;99372.03;5005088;28;20082;-46
2023/11/08 01:58:37;;;;;;;2.42;2.17;;;;;;;6.63;75.19;99377.19;5008175;28;20709;-43
2023/11/08 02:01:08;;;;;;;4.50;0.93;;;;;;;6.63;75.67;99372.03;5006443;28;20057;-40
2023/11/08 02:03:36;;;;;;;5.90;0.50;;;;;;;6.62;75.37;99370.31;5007649;28;20053;-42
2023/11/08 02:06:07;;;;;;;1.63;0.95;;;;;;;6.62;76.65;99376.31;5006482;28;20046;-41
2023/11/08 02:08:34;;;;;;;;;;;;;;;6.54;77.01;99378.00;5007131;28;20137;-43
2023/11/08 02:11:03;;;;;;;2.30;0.63;;;;;;;6.59;76.68;99366.03;5000684;28;19929;-42
2023/11/08 02:13:33;;;;;;;3.03;1.08;;;;;;;6.62;76.86;99365.19;5008812;28;20141;-46
2023/11/08 02:16:00;;;;;;;1.52;0.93;;;;;;;6.61;76.11;99364.31;5008468;28;20050;-44
2023/11/08 02:18:30;;;;;;;5.18;1.52;;;;;;;6.62;75.67;99358.28;5019390;28;20554;-43
2023/11/08 02:20:59;;;;;;;4.78;1.08;;;;;;;6.63;77.13;99352.31;5009787;28;20113;-44
2023/11/08 02:23:27;;;;;;;3.63;0.75;;;;;;;6.64;76.81;99355.72;5016994;28;20042;-42
2023/11/08 02:25:54;;;;;;;2.33;0.63;;;;;;;6.65;75.90;99354.88;5013857;28;20057;-44
2023/11/08 02:28:21;;;;;;;4.55;1.10;;;;;;;6.64;77.25;99360.88;5017042;28;20053;-46
2023/11/08 02:30:53;;;;;;;3.55;0.52;;;;;;;6.66;76.18;99361.75;5013214;28;20502;-40
2023/11/08 02:33:21;;;;;;;6.03;0.88;;;;;;;6.65;76.54;99345.44;5013942;28;20084;-46
2023/11/08 02:35:48;;;;;;;2.00;0.85;;;;;;;6.67;75.51;99348.91;5021515;28;20080;-41
2023/11/08 02:38:15;;;;;;;3.70;1.50;;;;;;;6.67;77.26;99343.75;5019836;28;20052;-42
2023/11/08 02:40:42;;;;;;;3.70;1.13;;;;;;;6.68;77.38;99335.16;5016840;28;20061;-42
2023/11/08 02:43:10;;;;;;;2.22;1.83;;;;;;;6.70;77.08;99332.59;5010368;28;20402;-46
2023/11/08 02:45:37;;;;;;;2.75;1.05;;;;;;;6.71;76.41;99328.28;5011230;28;20050;-44
2023/11/08 02:48:06;;;;;;;3.47;0.63;;;;;;;6.72;75.91;99324.88;4993879;28;20049;-42
2023/11/08 02:50:36;;;;;;;4.97;0.90;;;;;;;6.73;77.15;99311.13;5015471;28;20049;-48
2023/11/08 02:53:02;;;;;;;3.13;1.25;;;;;;;6.74;76.19;99323.16;5013701;28;20056;-49
2023/11/08 02:55:30;;;;;;;7.43;1.20;;;;;;;6.76;76.28;99311.16;5011510;28;20048;-46
2023/11/08 02:58:15;;;;;;;3.45;1.90;;;;;;;6.75;77.03;99314.59;5015143;28;20467;-42
2023/11/08 03:00:41;;;;;;;4.50;1.00;;;;;;;6.76;75.58;99308.56;5022014;28;20050;-40
2023/11/08 03:03:23;;;;;;;4.78;2.00;;;;;;;6.73;76.06;99300.84;4999599;28;20446;-48
2023/11/08 03:05:50;;;;;;;1.80;0.80;;;;;;;6.73;76.86;99295.69;5009789;28;20066;-45
2023/11/08 03:08:17;;;;;;;3.55;1.48;;;;;;;6.72;75.63;99278.56;5009819;28;20521;-46
2023/11/08 03:10:44;;;;;;;6.03;1.50;;;;;;;6.71;76.24;99263.94;5005731;28;20072;-45
2023/11/08 03:13:10;;;;;;;6.53;0.68;;;;;;;6.67;76.60;99253.69;5010053;28;20050;-44
2023/11/08 03:15:37;;;;;;;2.30;1.02;;;;;;;6.65;76.55;99259.66;5007221;28;20057;-46
2023/11/08 03:18:04;;;;;;;8.20;1.38;;;;;;;6.64;75.92;99260.53;5008183;28;20045;-44
2023/11/08 03:20:32;;;;;;;2.58;1.33;;;;;;;6.64;77.22;99245.06;5015056;28;20470;-47
2023/11/08 03:22:58;;;;;;;3.53;1.00;;;;;;;6.65;76.73;99247.66;5005205;28;20104;-43
2023/11/08 03:25:25;;;;;;;1.63;0.50;;;;;;;6.68;75.68;99242.50;5008433;28;20053;-45
2023/11/08 03:27:52;;;;;;;5.43;0.55;;;;;;;6.69;77.23;99244.22;5014094;28;20041;-50
2023/11/08 03:30:19;;;;;;;2.60;1.10;;;;;;;6.72;77.45;99235.63;5012285;28;20046;-44
2023/11/08 03:32:46;;;;;;;6.28;0.75;;;;;;;6.75;76.18;99234.81;5012793;28;20053;-42
2023/11/08 03:35:15;;;;;;;13.82;0.88;;;;;;;6.77;76.70;99225.34;5015053;28;20045;-39
2023/11/08 03:37:43;;;;;;;3.80;0.63;;;;;;;6.81;76.55;99222.78;5008947;28;20049;-41
2023/11/08 03:40:11;;;;;;;1.77;1.05;;;;;;;6.84;76.96;99216.78;5015758;28;20064;-46
2023/11/08 03:42:40;;;;;;;5.28;1.23;;;;;;;6.87;76.21;99210.75;5012745;28;20068;-40
2023/11/08 03:45:08;;;;;;;2.35;0.93;;;;;;;6.86;77.14;99204.75;5013170;28;20057;-46
2023/11/08 03:47:37;;;;;;;5.60;1.25;;;;;;;6.89;77.30;99209.88;5009351;28;20578;-43
2023/11/08 03:50:05;;;;;;;3.33;0.50;;;;;;;6.92;77.24;99209.91;5011384;28;20069;-45
2023/11/08 03:52:32;;;;;;;4.85;0.80;;;;;;;6.92;76.24;99204.75;5010075;28;20042;-40
2023/11/08 03:54:59;;;;;;;2.55;0.60;;;;;;;6.93;76.97;99201.31;5010016;28;20073;-42
2023/11/08 03:57:27;;;;;;;3.60;1.70;;;;;;;6.95;77.57;99201.31;5011262;28;20073;-47
2023/11/08 03:59:54;;;;;;;2.22;1.17;;;;;;;6.94;76.28;99197.88;5011251;28;20052;-44
2023/11/08 04:02:21;;;;;;;2.92;0.73;;;;;;;6.98;77.38;99193.59;5007101;28;20096;-43
2023/11/08 04:04:49;;;;;;;7.07;1.38;;;;;;;7.01;76.65;99192.72;5016737;28;20064;-41
2023/11/08 04:07:18;;;;;;;6.95;1.10;;;;;;;7.04;77.23;99191.00;5016005;28;20052;-42
2023/11/08 04:09:45;;;;;;;5.53;0.70;;;;;;;7.05;77.66;99194.41;5017115;28;20104;-42
2023/11/08 04:12:12;;;;;;;2.28;0.85;;;;;;;7.09;77.37;99190.13;5013328;28;20080;-43
2023/11/08 04:14:39;;;;;;;2.80;1.00;;;;;;;7.12;76.33;99185.81;5016022;28;20521;-44
2023/11/08 04:17:08;;;;;;;1.70;0.98;;;;;;;7.15;76.48;99174.66;5014309;28;20057;-47
2023/11/08 04:19:36;;;;;;;8.32;0.77;;;;;;;7.18;76.48;99175.50;5016885;28;20076;-50
2023/11/08 04:22:05;;;;;;;1.10;0.50;;;;;;;7.23;76.61;99166.91;5017865;28;20081;-39
2023/11/08 04:24:33;;;;;;;6.38;0.88;;;;;;;7.26;77.70;99164.34;5008717;28;20053;-43
2023/11/08 04:27:02;;;;;;;8.23;0.73;;;;;;;7.25;77.06;99160.03;5009707;28;20125;-45
2023/11/08 04:29:31;;;;;;;1.52;0.65;;;;;;;7.30;78.01;99163.47;5006315;28;20521;-42
2023/11/08 04:31:58;;;;;;;4.63;1.20;;;;;;;7.31;77.77;99150.59;5009566;28;20046;-47
2023/11/08 04:34:25;;;;;;;2.17;0.75;;;;;;;7.35;78.20;99148.84;5006128;28;20061;-43
2023/11/08 04:36:52;;;;;;;4.25;1.45;;;;;;;7.37;77.07;99144.53;5008412;28;20046;-46
2023/11/08 04:39:21;;;;;;;2.72;0.82;;;;;;;7.40;77.25;99129.03;5008659;28;20121;-45
2023/11/08 04:41:50;;;;;;;1.67;0.80;;;;;;;7.39;78.34;99142.81;5006335;28;20555;-44
2023/11/08 04:44:17;;;;;;;2.58;0.35;;;;;;;7.43;77.51;99128.22;5000877;28;20050;-41
2023/11/08 04:46:44;;;;;;;6.88;0.40;;;;;;;7.46;77.53;99121.31;5010821;28;20050;-45
2023/11/08 04:49:12;;;;;;;3.70;1.42;;;;;;;7.46;77.62;99129.03;5012302;28;20049;-46
2023/11/08 04:51:39;;;;;;;6.63;0.50;;;;;;;7.50;77.37;99118.72;5019072;28;20045;-48
2023/11/08 04:54:06;;;;;;;4.03;1.02;;;;;;;7.51;77.56;99104.97;5014199;28;20073;-44
2023/11/08 04:56:33;;;;;;;1.45;0.95;;;;;;;7.51;77.22;99110.13;5019810;28;20045;-41
2023/11/08 04:58:59;;;;;;;2.78;0.98;;;;;;;7.53;77.42;99108.41;5013145;28;20053;-46
2023/11/08 05:01:28;;;;;;;2.95;0.50;;;;;;;7.53;78.08;99103.25;5009771;28;20050;-41
2023/11/08 05:03:57;;;;;;;1.20;0.80;;;;;;;7.53;77.91;99098.94;5008122;28;20064;-41
2023/11/08 05:06:24;;;;;;;4.90;0.85;;;;;;;7.53;77.92;99095.50;5009924;28;20049;-47
2023/11/08 05:08:52;;;;;;;4.50;1.13;;;;;;;7.52;77.86;99091.19;5012829;28;20049;-44
2023/11/08 05:11:19;;;;;;;2.05;0.85;;;;;;;7.55;79.01;99080.88;5016844;28;20042;-43
2023/11/08 05:13:46;;;;;;;4.10;1.20;;;;;;;7.52;79.69;99078.31;5009716;28;20050;-42
2023/11/08 05:16:20;;;;;;;2.88;0.73;;;;;;;7.51;78.68;99069.75;5006396;28;20100;-41
2023/11/08 05:18:47;;;;;;;3.50;0.63;;;;;;;7.50;79.92;99059.44;5006300;28;20050;-46
2023/11/08 05:21:14;;;;;;;3.85;1.42;;;;;;;7.45;79.85;99055.19;5015480;28;20049;-44
2023/11/08 05:23:41;;;;;;;0.85;0.40;;;;;;;7.39;80.58;99044.91;5012193;28;20042;-45
2023/11/08 05:26:07;;;;;;;5.20;0.93;;;;;;;7.39;79.48;99039.75;5009215;28;20567;-45
2023/11/08 05:28:34;;;;;;;4.95;0.85;;;;;;;7.36;81.00;99034.63;5011060;28;20185;-45
2023/11/08 05:31:01;;;;;;;2.97;1.05;;;;;;;7.33;80.14;99039.81;5005766;28;20463;-45
2023/11/08 05:33:27;;;;;;;1.33;0.40;;;;;;;7.38;80.77;99038.06;5013845;28;20565;-43
2023/11/08 05:35:55;;;;;;;4.25;1.00;;;;;;;7.35;80.13;99020.03;5001731;28;20046;-41
2023/11/08 05:38:22;;;;;;;5.38;1.45;;;;;;;7.30;81.64;99011.47;5011892;28;20582;-44
2023/11/08 05:40:49;;;;;;;1.83;0.65;;;;;;;7.33;80.11;99020.03;5001525;28;20052;-42
2023/11/08 05:43:15;;;;;;;1.30;0.77;;;;;;;7.31;80.62;99015.75;5010477;28;20080;-43
2023/11/08 05:45:42;;;;;;;4.60;1.05;;;;;;;7.32;82.04;99002.00;5001907;28;20058;-44
2023/11/08 05:48:09;;;;;;;2.58;1.70;;;;;;;7.32;80.76;98999.44;5005187;28;20451;-41
2023/11/08 05:50:35;;;;;;;3.80;1.00;;;;;;;7.30;81.03;98993.44;5004344;28;20123;-45
2023/11/08 05:53:03;;;;;;;5.15;0.73;;;;;;;7.31;82.34;98972.84;5007228;28;20053;-39
2023/11/08 05:55:29;;;;;;;0.80;0.40;;;;;;;7.29;82.66;98966.81;5009343;28;20056;-46
2023/11/08 05:57:56;;;;;;;2.65;0.57;;;;;;;7.28;81.80;98964.25;5011525;28;20046;-45
2023/11/08 06:00:23;;;;;;;1.75;0.47;;;;;;;7.32;82.82;98968.53;5005333;28;20050;-44
2023/11/08 06:02:50;;;;;;;1.75;0.77;;;;;;;7.32;82.55;98965.94;5004773;28;20175;-45
2023/11/08 06:05:16;;;;;;;2.03;0.57;;;;;;;7.32;82.34;98950.50;5009832;28;20060;-48
2023/11/08 06:07:44;;;;;;;3.97;0.75;;;;;;;7.32;82.89;98950.50;5006499;28;20761;-43
2023/11/08 06:10:11;;;;;;;1.38;0.63;;;;;;;7.30;83.31;98945.34;5006549;28;20044;-43
2023/11/08 06:12:38;;;;;;;3.05;0.70;;;;;;;7.35;84.00;98940.16;5005272;28;20503;-45
2023/11/08 06:15:05;;;;;;;1.48;0.77;;;;;;;7.39;84.19;98926.41;5010505;28;20136;-44
2023/11/08 06:17:32;;;;;;;6.13;1.80;;;;;;;7.44;84.10;98927.22;5009190;28;20070;-49
2023/11/08 06:19:59;;;;;;;1.23;1.13;;;;;;;7.43;83.11;98906.63;5009344;28;20388;-48
2023/11/08 06:22:26;;;;;;;2.05;0.50;;;;;;;7.45;83.58;98905.75;5003406;28;20050;-47
2023/11/08 06:24:52;;;;;;;0.70;0.57;;;;;;;7.46;84.44;98892.00;5005779;28;20058;-43
2023/11/08 06:27:19;;;;;;;3.30;1.45;;;;;;;7.47;83.99;98892.88;5014806;28;20070;-43
2023/11/08 06:29:46;;;;;;;1.55;0.65;;;;;;;7.54;84.35;98889.34;5010663;28;20042;-46
2023/11/08 06:32:13;;;;;;;1.52;0.75;;;;;;;7.52;84.03;98890.22;5013481;28;20060;-42
2023/11/08 06:34:40;;;;;;;2.95;2.13;;;;;;;7.58;84.82;98874.72;5015986;28;20395;-48
2023/11/08 06:37:07;;;;;;;3.08;0.98;;;;;;;7.62;84.14;98871.25;5009188;28;20038;-41
2023/11/08 06:39:37;;;;;;;5.15;1.23;;;;;;;7.62;84.68;98870.38;5014088;28;20107;-41
2023/11/08 06:42:05;;;;;;;2.63;1.20;;;;;;;7.61;85.59;98866.97;5008127;28;20053;-44
2023/11/08 06:44:32;;;;;;;3.03;2.10;;;;;;;7.63;85.52;98857.47;5010893;28;20442;-48
2023/11/08 06:46:58;;;;;;;4.97;3.38;;;;;;;7.67;85.13;98859.16;5013179;28;20384;-48
2023/11/08 06:49:25;;;;;;;4.05;0.77;;;;;;;7.66;85.69;98849.72;5019199;28;20057;-43
2023/11/08 06:51:52;;;;;;;2.00;0.70;;;;;;;7.69;85.06;98839.38;5008831;28;20085;-40
2023/11/08 06:54:19;;;;;;;3.53;1.05;;;;;;;7.69;85.67;98841.97;5016092;28;20045;-45
2023/11/08 06:56:46;;;;;;;3.15;1.25;;;;;;;7.71;85.54;98831.63;5015050;28;20490;-44
2023/11/08 06:59:12;;;;;;;1.67;0.50;;;;;;;7.76;86.35;98822.13;5012586;28;20539;-47
2023/11/08 07:01:40;;;;;;;1.60;0.80;;;;;;;7.76;86.61;98824.69;4999882;28;20060;-45
2023/11/08 07:04:07;;;;;;;2.35;0.70;;;;;;;7.83;85.75;98822.91;5009154;28;20723;-44
2023/11/08 07:06:34;;;;;;;2.20;1.55;;;;;;;7.83;86.73;98820.31;5014498;28;20136;-42
2023/11/08 07:09:01;;;;;;;3.88;0.73;;;;;;;7.87;86.80;98811.69;5013209;28;20045;-49
2023/11/08 07:11:27;;;;;;;2.65;0.77;;;;;;;7.93;86.18;98813.34;5012175;28;20042;-50
2023/11/08 07:13:55;;;;;;;1.88;0.82;;;;;;;7.97;87.15;98802.97;5010182;28;20052;-46
2023/11/08 07:16:21;;;;;;;10.60;2.00;;;;;;;8.01;86.26;98800.38;5006020;28;20667;-48
2023/11/08 07:18:48;;;;;;;1.98;0.95;;;;;;;8.06;86.10;98798.56;5009466;28;20057;-46
2023/11/08 07:21:18;;;;;;;2.00;0.98;;;;;;;8.04;87.00;98800.34;5010908;28;20046;-44
2023/11/08 07:23:45;;;;;;;3.75;1.40;;;;;;;8.10;86.81;98801.09;5012928;28;20057;-49
2023/11/08 07:26:15;;;;;;;4.00;0.80;;;;;;;8.16;86.45;98792.44;5012290;28;20037;-42
2023/11/08 07:28:44;;;;;;;2.78;2.20;;;;;;;8.15;87.41;98793.31;5011830;28;20407;-48
2023/11/08 07:31:13;;;;;;;3.20;1.00;;;;;;;8.21;87.93;98788.06;5006956;28;20046;-43
2023/11/08 07:33:41;;;;;;;4.75;1.08;;;;;;;8.30;86.54;98775.91;5013956;28;20503;-47
2023/11/08 07:36:08;;;;;;;2.50;1.33;;;;;;;8.35;86.43;98768.97;5016640;28;20723;-46
2023/11/08 07:38:35;;;;;;;2.65;1.17;;;;;;;8.34;86.74;98764.66;5012891;28;20061;-45
2023/11/08 07:41:02;;;;;;;0.82;0.82;;;;;;;8.41;87.22;98758.53;5008229;28;20133;-44
2023/11/08 07:43:29;;;;;;;2.92;0.93;;;;;;;8.43;86.82;98756.81;5015408;28;20685;-42
2023/11/08 07:45:58;;;;;;;6.18;0.68;;;;;;;8.47;87.39;98752.44;5014183;28;20136;-41
2023/11/08 07:48:26;;;;;;;1.63;0.60;;;;;;;8.53;86.76;98752.41;5015249;28;20084;-40
2023/11/08 07:50:53;;;;;;;2.50;1.05;;;;;;;8.56;86.96;98744.59;5017747;28;20061;-50
2023/11/08 07:53:21;;;;;;;2.90;1.10;;;;;;;8.56;87.12;98742.03;5007759;28;20053;-50
2023/11/08 07:55:49;;;;;;;3.20;0.95;;;;;;;8.59;87.63;98730.81;5007008;28;20506;-46
2023/11/08 07:58:17;;;;;;;4.47;1.08;;;;;;;8.68;87.38;98730.63;5016692;28;20041;-46
2023/11/08 08:00:45;;;;;;;2.60;0.80;;;;;;;8.74;86.81;98725.38;5011206;28;20068;-44
2023/11/08 08:03:13;;;;;;;7.57;0.63;;;;;;;8.78;87.26;98720.19;5013188;28;20053;-46
2023/11/08 08:05:41;;;;;;;2.25;0.70;;;;;;;8.73;87.85;98723.69;5009330;28;20187;-44
2023/11/08 08:08:09;;;;;;;1.85;0.82;;;;;;;8.87;86.85;98726.03;5007087;28;20089;-43
2023/11/08 08:10:36;;;;;;;4.72;0.82;;;;;;;8.90;87.31;98704.47;5008461;28;20077;-47
2023/11/08 08:13:03;;;;;;;2.55;0.82;;;;;;;8.94;87.08;98706.13;5007897;28;20046;-50
2023/11/08 08:15:30;;;;;;;2.10;0.75;;;;;;;8.98;86.81;98697.44;5013496;28;20072;-41
2023/11/08 08:17:59;;;;;;;4.03;0.63;;;;;;;9.03;86.90;98699.94;5017534;28;20093;-47
2023/11/08 08:20:27;;;;;;;2.72;0.68;;;;;;;9.05;86.81;98695.59;5011661;28;20042;-47
2023/11/08 08:22:56;;;;;;;1.92;0.47;;;;;;;9.11;86.75;98692.03;5007915;28;20046;-46
2023/11/08 08:25:23;;;;;;;2.38;1.40;;;;;;;9.15;86.84;98693.69;5001521;28;20540;-46
2023/11/08 08:27:49;;;;;;;1.35;1.17;;;;;;;9.18;86.74;98672.97;5014707;28;20052;-44
2023/11/08 08:30:16;;;;;;;1.25;0.60;;;;;;;9.21;86.85;98675.50;5009964;28;20081;-46
2023/11/08 08:32:44;;;;;;;0.82;0.52;;;;;;;9.26;86.92;98665.91;5014925;28;20546;-39
2023/11/08 08:35:12;;;;;;;6.63;1.25;;;;;;;9.31;86.50;98663.25;5008088;28;20053;-42
2023/11/08 08:37:39;;;;;;;1.85;1.27;;;;;;;9.34;86.45;98654.56;5011452;28;20157;-49
2023/11/08 08:40:10;;;;;;;0.82;0.77;;;;;;;9.33;87.13;98629.63;5009266;28;20042;-41
2023/11/08 08:42:39;;;;;;;1.00;0.52;;;;;;;9.34;87.28;98636.50;5016901;28;20127;-49
2023/11/08 08:45:10;;;;;;;2.47;0.50;;;;;;;9.39;87.29;98647.56;5007392;28;20049;-47
2023/11/08 08:47:37;;;;;;;2.20;0.63;;;;;;;9.44;86.67;98632.84;5002515;28;20046;-47
2023/11/08 08:50:12;;;;;;;1.40;0.63;;;;;;;9.47;87.02;98622.44;5012968;28;20499;-43
2023/11/08 08:52:40;;;;;;;1.90;1.80;;;;;;;9.50;87.23;98622.34;5015261;28;20458;-44
2023/11/08 08:55:10;;;;;;;1.88;0.73;;;;;;;9.54;87.11;98612.81;5019175;28;20054;-47
2023/11/08 08:57:41;;;;;;;1.65;0.93;;;;;;;9.59;87.03;98605.81;5017415;28;20053;-49
2023/11/08 09:00:09;;;;;;;0.75;0.63;;;;;;;9.62;87.26;98594.53;5012206;28;20499;-49
2023/11/08 09:02:36;;;;;;;1.15;0.80;;;;;;;9.63;87.13;98597.09;5007937;28;20716;-48
2023/11/08 09:05:07;;;;;;;0.63;0.57;;;;;;;9.70;87.40;98592.66;5010917;28;20084;-42
2023/11/08 09:07:35;;;;;;;5.18;1.60;;;;;;;9.75;87.66;98585.63;5010172;28;20479;-49
2023/11/08 09:10:04;;;;;;;1.67;0.70;;;;;;;9.79;87.54;98590.75;5009468;28;20077;-42
2023/11/08 09:12:31;;;;;;;0.98;0.95;;;;;;;9.79;87.59;98591.56;5013086;28;20095;-47
2023/11/08 09:14:58;;;;;;;0.85;0.55;;;;;;;9.88;87.47;98582.75;5003171;28;20511;-45
2023/11/08 09:17:25;;;;;;;1.08;0.57;;;;;;;9.91;87.10;98567.19;5011072;28;20042;-45
2023/11/08 09:19:51;;;;;;;0.73;0.60;;;;;;;9.94;86.91;98579.19;5010600;28;20057;-39
2023/11/08 09:22:23;;;;;;;1.17;0.85;;;;;;;9.95;87.83;98568.81;5007210;28;20048;-47
2023/11/08 09:24:49;;;;;;;0.57;0.50;;;;;;;10.07;87.07;98564.22;5016321;28;20046;-42
2023/11/08 09:27:16;;;;;;;1.30;0.50;;;;;;;10.14;86.84;98560.59;5011361;28;20038;-48
2023/11/08 09:29:43;;;;;;;1.23;0.50;;;;;;;10.20;86.70;98575.94;5019393;28;20129;-43
2023/11/08 09:32:10;;;;;;;0.50;0.45;;;;;;;10.26;86.42;98560.28;5018406;28;20111;-43
2023/11/08 09:34:37;;;;;;;1.25;1.05;;;;;;;10.21;87.39;98556.97;5017971;28;20124;-43
2023/11/08 09:37:04;;;;;;;1.98;0.52;;;;;;;10.32;86.69;98550.66;5018649;28;20076;-46
2023/11/08 09:39:32;;;;;;;0.70;0.50;;;;;;;10.36;86.69;98560.88;5018521;28;20507;-44
2023/11/08 09:41:59;;;;;;;1.20;0.50;;;;;;;10.43;86.84;98555.56;5012881;28;20124;-45
2023/11/08 09:44:26;;;;;;;0.98;0.68;;;;;;;10.52;85.84;98556.22;5012205;28;20467;-51
2023/11/08 09:46:54;;;;;;;1.05;0.90;;;;;;;10.47;86.16;98552.88;5021429;28;20128;-47
2023/11/08 09:49:23;;;;;;;0.77;0.65;;;;;;;10.57;86.38;98539.69;5023204;28;20053;-48
2023/11/08 09:51:55;;;;;;;1.00;0.63;;;;;;;10.66;86.47;98542.03;5017436;28;20057;-43
2023/11/08 09:54:22;;;;;;;0.47;0.40;;;;;;;10.70;86.14;98538.47;5016648;28;20049;-44
2023/11/08 09:56:49;;;;;;;0.98;0.98;;;;;;;10.75;85.59;98552.16;5015026;28;20073;-43
2023/11/08 09:59:17;;;;;;;2.90;2.63;;;;;;;10.83;85.20;98540.69;5015181;28;20458;-43
2023/11/08 10:01:45;;;;;;;0.85;0.82;;;;;;;10.85;85.68;98532.03;5022401;28;20136;-45
2023/11/08 10:04:13;;;;;;;0.57;0.57;;;;;;;10.91;86.22;98525.81;5022814;28;20678;-45
2023/11/08 10:06:41;;;;;;;0.95;0.93;;;;;;;10.93;86.52;98529.19;5021410;28;20050;-43
2023/11/08 10:09:08;;;;;;;1.15;1.05;;;;;;;11.01;85.42;98532.41;5020947;28;20534;-44
2023/11/08 10:11:35;;;;;;;0.55;0.55;;;;;;;11.02;86.19;98515.97;5014749;28;20088;-43
2023/11/08 10:14:02;;;;;;;0.50;0.40;;;;;;;11.07;86.57;98507.22;5022346;28;20490;-43
2023/11/08 10:16:44;;;;;;;0.98;0.98;;;;;;;11.10;85.36;98510.56;5011114;28;20045;-46
2023/11/08 10:19:20;;;;;;;1.02;0.52;;;;;;;11.14;85.91;98506.13;5009648;28;20045;-48
2023/11/08 10:22:22;;;;;;;0.70;0.70;;;;;;;11.09;85.63;98492.47;5011139;28;20052;-45
2023/11/08 10:27:32;;;;;;;1.63;1.52;;;;;;;11.27;86.00;98497.09;5061846;28;20533;-42
2023/11/08 10:30:19;;;;;;;1.60;1.17;;;;;;;11.25;86.11;98496.28;5074231;28;20148;-47
2023/11/08 10:32:46;;;;;;;0.90;0.90;;;;;;;11.28;86.80;98496.22;5054729;28;20037;-49
2023/11/08 10:37:50;;;;;;;0.80;0.13;;;;;;;11.41;85.51;98498.41;5041047;28;20390;-49
2023/11/08 10:40:17;;;;;;;0.52;0.40;;;;;;;11.47;85.25;98494.78;4997879;28;20050;-50
2023/11/08 10:42:53;;;;;;;0.38;0.30;;;;;;;11.43;86.47;98486.25;5002497;28;20594;-41
2023/11/08 10:45:20;;;;;;;0.57;0.57;;;;;;;11.47;85.07;98476.63;5004912;28;20416;-45
2023/11/08 10:47:48;;;;;;;0.40;0.40;;;;;;;11.47;85.63;98487.84;4997575;28;20128;-47
2023/11/08 10:50:16;;;;;;;0.30;0.30;;;;;;;11.56;85.95;98482.38;5003750;28;20423;-47
2023/11/08 10:52:43;;;;;;;0.32;0.30;;;;;;;11.60;85.69;98474.50;4991790;28;20054;-46
2023/11/08 10:55:11;;;;;;;0.40;0.40;;;;;;;11.61;86.26;98494.34;4996195;28;20488;-42
2023/11/08 10:57:42;;;;;;;0.20;0.20;;;;;;;11.66;85.14;98482.09;4999733;28;20038;-44
2023/11/08 11:00:09;;;;;;;0.30;0.30;;;;;;;11.67;85.47;98478.59;5002275;28;20129;-47
2023/11/08 11:02:42;;;;;;;0.30;0.30;;;;;;;11.72;85.16;98494.84;5000257;28;20042;-41
2023/11/08 11:05:10;;;;;;;0.40;0.40;;;;;;;11.73;85.24;98478.41;5001950;28;20523;-48
2023/11/08 11:07:40;;;;;;;0.38;0.38;;;;;;;11.81;85.80;98462.56;5002912;28;20142;-43
2023/11/08 11:10:11;;;;;;;0.30;0.30;;;;;;;11.83;85.15;98484.97;5000636;28;20042;-46
2023/11/08 11:15:53;;;;;;;0.40;0.40;;;;;;;11.90;85.56;98489.97;5057074;27;20123;-46
2023/11/08 11:18:25;;;;;;;0.65;0.65;;;;;;;11.99;84.42;98478.44;5048516;28;20569;-41
2023/11/08 11:21:16;;;;;;;0.65;0.52;;;;;;;12.01;83.98;98487.00;5042623;28;20044;-42
2023/11/08 11:23:43;;;;;;;0.38;0.30;;;;;;;12.07;84.35;98487.69;5029070;28;20060;-48
2023/11/08 11:26:11;;;;;;;0.77;0.77;;;;;;;12.11;85.01;98487.56;5044528;28;20049;-44
2023/11/08 11:28:55;;;;;;;0.32;0.30;;;;;;;12.07;84.42;98482.50;5043803;28;20052;-45
2023/11/08 11:31:35;;;;;;;1.02;0.98;;;;;;;12.11;85.15;98483.22;5059799;28;20042;-45
2023/11/08 11:39:40;;;;;;;0.73;0.50;;;;;;;12.27;84.26;98478.38;5011938;28;21173;-44
2023/11/08 11:42:14;;;;;;;0.93;0.75;;;;;;;12.31;85.10;98487.75;5005792;28;20066;-43
2023/11/08 11:47:22;;;;;;;2.13;0.40;;;;;;;12.37;85.09;98498.81;5056803;27;20394;-48
2023/11/08 11:49:51;;;;;;;0.70;0.22;;;;;;;12.37;84.83;98504.00;5022233;28;20053;-48
2023/11/08 11:52:20;;;;;;;0.55;0.55;;;;;;;12.37;84.77;98522.16;5021685;28;20068;-43
2023/11/08 11:54:49;;;;;;;1.27;0.93;;;;;;;12.34;83.84;98526.56;5019828;28;20064;-43
2023/11/08 11:57:19;;;;;;;0.40;0.30;;;;;;;12.22;82.92;98537.34;5018913;28;20123;-44
2023/11/08 11:59:48;;;;;;;0.47;0.40;;;;;;;12.15;83.39;98535.88;5014917;28;20392;-47
2023/11/08 12:02:15;;;;;;;0.68;0.68;;;;;;;12.06;81.90;98537.03;5018210;28;20495;-41